logo
Search for airport 
image banner adimage banner adimage banner ad
image banner ad

OETF - Taif International Airport

Located in Taif, Saudi Arabia

ICAO - OETF, IATA - TIF

Data provided by Airmate  

General information

Coordinates: N21°29'0" E40°32'40"
Elevation is 4848 feet MSL.
 
View others Airports in Makkah

Operational data

Special qualification required
Current time UTC:
Current local time:
Weather
METAR: OETF 171300Z 27014KT CAVOK 36/M02 Q1015 NOSIG
TAF: TAF OETF 171100Z 1712/1818 29014KT CAVOK BECMG 1718/1720 33010KT
View NOTAMs / SUP AIP / TFR affecting this airport [VIEW]
Communications frequencies: [VIEW]

Runways:

RWY identifierQFULength (ft)Width (ft)SurfaceLDA (ft)
17172°10991148ASP
35352°10991148ASP
0775°12254148ASP
25255°12254148ASP

Airport contact information

Address: Taif Saudi Arabia

Satellite view of OETF